sensor_id;sensor_type;location;lat;lon;timestamp;pressure;altitude;pressure_sealevel;temperature;humidity
60099;BME280;62818;49.394;8.686;2023-07-24T00:00:26;99576.34;;;22.02;53.23
60099;BME280;62818;49.394;8.686;2023-07-24T00:01:27;99580.09;;;21.86;53.60
60099;BME280;62818;49.394;8.686;2023-07-24T00:02:27;99579.03;;;21.97;54.36
60099;BME280;62818;49.394;8.686;2023-07-24T00:03:28;99586.06;;;21.98;54.13
60099;BME280;62818;49.394;8.686;2023-07-24T00:04:30;99571.72;;;21.88;54.17
60099;BME280;62818;49.394;8.686;2023-07-24T00:05:31;99572.56;;;21.88;54.40
60099;BME280;62818;49.394;8.686;2023-07-24T00:06:32;99582.25;;;21.94;53.98
60099;BME280;62818;49.394;8.686;2023-07-24T00:07:32;99576.06;;;21.89;54.42
60099;BME280;62818;49.394;8.686;2023-07-24T00:08:33;99572.53;;;21.83;54.60
60099;BME280;62818;49.394;8.686;2023-07-24T00:09:33;99578.50;;;21.95;54.63
60099;BME280;62818;49.394;8.686;2023-07-24T00:10:34;99572.56;;;22.03;54.60
60099;BME280;62818;49.394;8.686;2023-07-24T00:11:34;99581.72;;;21.92;54.63
60099;BME280;62818;49.394;8.686;2023-07-24T00:12:35;99572.00;;;21.86;55.55
60099;BME280;62818;49.394;8.686;2023-07-24T00:13:35;99579.00;;;21.82;55.42
60099;BME280;62818;49.394;8.686;2023-07-24T00:14:36;99580.06;;;21.71;55.62
60099;BME280;62818;49.394;8.686;2023-07-24T00:15:38;99576.00;;;21.69;56.26
60099;BME280;62818;49.394;8.686;2023-07-24T00:16:39;99575.72;;;21.65;56.39
60099;BME280;62818;49.394;8.686;2023-07-24T00:17:39;99570.34;;;21.65;56.83
60099;BME280;62818;49.394;8.686;2023-07-24T00:18:40;99571.41;;;21.64;56.70
60099;BME280;62818;49.394;8.686;2023-07-24T00:19:41;99577.88;;;21.63;57.09
60099;BME280;62818;49.394;8.686;2023-07-24T00:20:41;99575.19;;;21.58;57.64
60099;BME280;62818;49.394;8.686;2023-07-24T00:21:42;99559.00;;;21.58;57.89
60099;BME280;62818;49.394;8.686;2023-07-24T00:22:42;99570.84;;;21.62;58.10
60099;BME280;62818;49.394;8.686;2023-07-24T00:23:43;99568.97;;;21.58;58.54
60099;BME280;62818;49.394;8.686;2023-07-24T00:24:43;99573.56;;;21.67;58.57
60099;BME280;62818;49.394;8.686;2023-07-24T00:25:44;99567.66;;;21.65;58.79
60099;BME280;62818;49.394;8.686;2023-07-24T00:26:44;99569.78;;;21.68;58.69
60099;BME280;62818;49.394;8.686;2023-07-24T00:27:44;99559.53;;;21.70;59.41
60099;BME280;62818;49.394;8.686;2023-07-24T00:28:45;99563.28;;;21.59;59.34
60099;BME280;62818;49.394;8.686;2023-07-24T00:29:45;99563.31;;;21.64;59.79
60099;BME280;62818;49.394;8.686;2023-07-24T00:30:46;99566.53;;;21.61;59.93
60099;BME280;62818;49.394;8.686;2023-07-24T00:31:46;99559.25;;;21.52;60.22
60099;BME280;62818;49.394;8.686;2023-07-24T00:32:47;99556.78;;;21.40;61.06
60099;BME280;62818;49.394;8.686;2023-07-24T00:33:47;99558.94;;;21.38;61.73
60099;BME280;62818;49.394;8.686;2023-07-24T00:34:48;99551.13;;;21.47;62.07
60099;BME280;62818;49.394;8.686;2023-07-24T00:35:48;99557.34;;;21.57;61.89
60099;BME280;62818;49.394;8.686;2023-07-24T00:36:49;99552.47;;;21.44;62.53
60099;BME280;62818;49.394;8.686;2023-07-24T00:37:49;99544.69;;;21.48;62.87
60099;BME280;62818;49.394;8.686;2023-07-24T00:38:50;99559.50;;;21.45;64.06
60099;BME280;62818;49.394;8.686;2023-07-24T00:39:50;99555.72;;;21.46;64.48
60099;BME280;62818;49.394;8.686;2023-07-24T00:40:51;99553.03;;;21.41;65.01
60099;BME280;62818;49.394;8.686;2023-07-24T00:41:51;99548.16;;;21.38;65.28
60099;BME280;62818;49.394;8.686;2023-07-24T00:42:52;99539.78;;;21.29;66.18
60099;BME280;62818;49.394;8.686;2023-07-24T00:43:52;99546.53;;;21.37;66.20
60099;BME280;62818;49.394;8.686;2023-07-24T00:44:53;99540.09;;;21.43;66.44
60099;BME280;62818;49.394;8.686;2023-07-24T00:45:54;99539.56;;;21.56;65.69
60099;BME280;62818;49.394;8.686;2023-07-24T00:46:57;99534.72;;;21.58;65.61
60099;BME280;62818;49.394;8.686;2023-07-24T00:47:59;99540.66;;;21.60;65.67
60099;BME280;62818;49.394;8.686;2023-07-24T00:49:00;99538.75;;;21.56;66.28
60099;BME280;62818;49.394;8.686;2023-07-24T00:50:02;99536.34;;;21.64;66.06
60099;BME280;62818;49.394;8.686;2023-07-24T00:51:03;99540.66;;;21.60;66.64
60099;BME280;62818;49.394;8.686;2023-07-24T00:52:04;99537.97;;;21.75;65.33
60099;BME280;62818;49.394;8.686;2023-07-24T00:53:05;99538.53;;;21.82;65.54
60099;BME280;62818;49.394;8.686;2023-07-24T00:54:06;99533.63;;;21.59;66.49
60099;BME280;62818;49.394;8.686;2023-07-24T00:55:07;99537.41;;;21.58;66.84
60099;BME280;62818;49.394;8.686;2023-07-24T00:56:11;99525.03;;;21.67;66.19
60099;BME280;62818;49.394;8.686;2023-07-24T00:57:11;99541.22;;;21.67;66.51
60099;BME280;62818;49.394;8.686;2023-07-24T00:58:12;99533.84;;;21.37;68.26
60099;BME280;62818;49.394;8.686;2023-07-24T00:59:14;99525.50;;;21.34;69.13
60099;BME280;62818;49.394;8.686;2023-07-24T01:00:15;99510.66;;;21.31;69.75
60099;BME280;62818;49.394;8.686;2023-07-24T01:01:19;99530.34;;;21.27;70.17
60099;BME280;62818;49.394;8.686;2023-07-24T01:02:20;99523.09;;;21.48;69.27
60099;BME280;62818;49.394;8.686;2023-07-24T01:03:22;99526.38;;;21.65;69.06
60099;BME280;62818;49.394;8.686;2023-07-24T01:04:31;99519.63;;;21.52;69.24
60099;BME280;62818;49.394;8.686;2023-07-24T01:05:32;99521.78;;;21.50;69.95
60099;BME280;62818;49.394;8.686;2023-07-24T01:06:32;99518.25;;;21.50;69.77
60099;BME280;62818;49.394;8.686;2023-07-24T01:07:33;99518.00;;;21.56;69.02
60099;BME280;62818;49.394;8.686;2023-07-24T01:08:34;99509.88;;;21.46;70.20
60099;BME280;62818;49.394;8.686;2023-07-24T01:09:34;99509.63;;;21.58;69.87
60099;BME280;62818;49.394;8.686;2023-07-24T01:10:35;99499.09;;;21.51;70.03
60099;BME280;62818;49.394;8.686;2023-07-24T01:11:38;99496.69;;;21.60;68.63
60099;BME280;62818;49.394;8.686;2023-07-24T01:12:45;99494.50;;;21.41;70.33
60099;BME280;62818;49.394;8.686;2023-07-24T01:14:07;99498.03;;;21.57;70.06
60099;BME280;62818;49.394;8.686;2023-07-24T01:15:19;99492.91;;;21.61;69.80
60099;BME280;62818;49.394;8.686;2023-07-24T01:16:41;99498.84;;;21.63;69.79
60099;BME280;62818;49.394;8.686;2023-07-24T01:17:48;99494.81;;;21.75;68.54
60099;BME280;62818;49.394;8.686;2023-07-24T01:18:56;99496.94;;;21.43;70.06
60099;BME280;62818;49.394;8.686;2023-07-24T01:19:58;99494.75;;;21.25;71.84
60099;BME280;62818;49.394;8.686;2023-07-24T01:21:04;99498.84;;;21.58;70.05
60099;BME280;62818;49.394;8.686;2023-07-24T01:25:18;99479.38;;;21.30;71.25
60099;BME280;62818;49.394;8.686;2023-07-24T01:26:27;99482.31;;;21.14;72.59
60099;BME280;62818;49.394;8.686;2023-07-24T01:27:27;99478.88;;;21.49;71.60
60099;BME280;62818;49.394;8.686;2023-07-24T01:28:28;99472.13;;;21.41;71.83
60099;BME280;62818;49.394;8.686;2023-07-24T01:29:29;99477.19;;;21.07;73.20
60099;BME280;62818;49.394;8.686;2023-07-24T01:30:29;99481.25;;;21.20;72.53
60099;BME280;62818;49.394;8.686;2023-07-24T01:31:30;99484.38;;;20.92;73.99
60099;BME280;62818;49.394;8.686;2023-07-24T01:32:30;99487.59;;;20.84;74.57
60099;BME280;62818;49.394;8.686;2023-07-24T01:33:31;99488.59;;;20.67;75.29
60099;BME280;62818;49.394;8.686;2023-07-24T01:34:34;99488.47;;;20.47;76.93
60099;BME280;62818;49.394;8.686;2023-07-24T01:35:34;99487.97;;;20.50;77.15
60099;BME280;62818;49.394;8.686;2023-07-24T01:36:37;99479.84;;;20.45;77.33
60099;BME280;62818;49.394;8.686;2023-07-24T01:37:37;99480.78;;;20.66;75.73
60099;BME280;62818;49.394;8.686;2023-07-24T01:38:41;99472.06;;;20.44;77.76
60099;BME280;62818;49.394;8.686;2023-07-24T01:39:43;99473.41;;;20.51;77.76
60099;BME280;62818;49.394;8.686;2023-07-24T01:40:54;99480.16;;;20.54;77.56
60099;BME280;62818;49.394;8.686;2023-07-24T01:41:57;99473.44;;;20.56;77.07
60099;BME280;62818;49.394;8.686;2023-07-24T01:43:07;99473.41;;;20.51;77.50
60099;BME280;62818;49.394;8.686;2023-07-24T01:44:11;99480.28;;;20.84;76.76
60099;BME280;62818;49.394;8.686;2023-07-24T01:45:12;99483.31;;;20.98;75.77
60099;BME280;62818;49.394;8.686;2023-07-24T01:46:13;99474.25;;;21.19;74.49
60099;BME280;62818;49.394;8.686;2023-07-24T01:47:13;99481.69;;;21.02;74.53
60099;BME280;62818;49.394;8.686;2023-07-24T01:48:14;99491.28;;;20.67;76.20
60099;BME280;62818;49.394;8.686;2023-07-24T01:49:14;99494.25;;;20.71;76.22
60099;BME280;62818;49.394;8.686;2023-07-24T01:50:15;99487.50;;;20.63;76.31
60099;BME280;62818;49.394;8.686;2023-07-24T01:51:15;99489.69;;;20.72;76.41
60099;BME280;62818;49.394;8.686;2023-07-24T01:52:17;99488.72;;;21.03;75.46
60099;BME280;62818;49.394;8.686;2023-07-24T01:53:17;99487.69;;;21.09;74.30
60099;BME280;62818;49.394;8.686;2023-07-24T01:54:18;99491.38;;;20.98;74.45
60099;BME280;62818;49.394;8.686;2023-07-24T01:55:18;99487.81;;;20.72;76.35
60099;BME280;62818;49.394;8.686;2023-07-24T01:56:19;99478.88;;;20.61;77.00
60099;BME280;62818;49.394;8.686;2023-07-24T01:57:19;99496.69;;;20.73;77.09
60099;BME280;62818;49.394;8.686;2023-07-24T01:58:20;99492.75;;;21.00;75.71
60099;BME280;62818;49.394;8.686;2023-07-24T01:59:20;99491.91;;;20.90;75.35
60099;BME280;62818;49.394;8.686;2023-07-24T02:00:20;99480.16;;;21.06;75.26
60099;BME280;62818;49.394;8.686;2023-07-24T02:01:21;99482.31;;;21.24;73.94
60099;BME280;62818;49.394;8.686;2023-07-24T02:02:21;99471.81;;;21.12;74.33
60099;BME280;62818;49.394;8.686;2023-07-24T02:03:22;99476.25;;;20.87;75.95
60099;BME280;62818;49.394;8.686;2023-07-24T02:04:22;99459.31;;;20.86;76.35
60099;BME280;62818;49.394;8.686;2023-07-24T02:05:23;99465.00;;;21.00;76.30
60099;BME280;62818;49.394;8.686;2023-07-24T02:06:23;99463.97;;;21.06;75.79
60099;BME280;62818;49.394;8.686;2023-07-24T02:07:24;99462.97;;;21.32;74.70
60099;BME280;62818;49.394;8.686;2023-07-24T02:08:24;99462.94;;;21.17;75.00
60099;BME280;62818;49.394;8.686;2023-07-24T02:09:25;99462.97;;;21.42;73.97
60099;BME280;62818;49.394;8.686;2023-07-24T02:10:25;99468.38;;;21.52;73.31
60099;BME280;62818;49.394;8.686;2023-07-24T02:11:25;99459.75;;;21.60;72.99
60099;BME280;62818;49.394;8.686;2023-07-24T02:12:26;99462.44;;;21.55;73.12
60099;BME280;62818;49.394;8.686;2023-07-24T02:13:26;99465.66;;;21.62;72.72
60099;BME280;62818;49.394;8.686;2023-07-24T02:14:27;99459.75;;;21.65;71.16
60099;BME280;62818;49.394;8.686;2023-07-24T02:15:28;99459.19;;;21.53;73.00
60099;BME280;62818;49.394;8.686;2023-07-24T02:16:28;99455.41;;;21.59;73.26
60099;BME280;62818;49.394;8.686;2023-07-24T02:17:29;99461.88;;;21.68;72.81
60099;BME280;62818;49.394;8.686;2023-07-24T02:18:29;99451.38;;;21.52;72.62
60099;BME280;62818;49.394;8.686;2023-07-24T02:19:30;99446.47;;;21.13;75.23
60099;BME280;62818;49.394;8.686;2023-07-24T02:20:30;99439.63;;;20.91;76.77
60099;BME280;62818;49.394;8.686;2023-07-24T02:21:31;99439.38;;;20.87;77.55
60099;BME280;62818;49.394;8.686;2023-07-24T02:22:32;99433.81;;;21.04;77.26
60099;BME280;62818;49.394;8.686;2023-07-24T02:23:33;99437.25;;;20.99;77.44
60099;BME280;62818;49.394;8.686;2023-07-24T02:24:34;99434.06;;;21.07;77.59
60099;BME280;62818;49.394;8.686;2023-07-24T02:25:35;99434.88;;;21.18;76.86
60099;BME280;62818;49.394;8.686;2023-07-24T02:26:36;99427.38;;;21.45;75.44
60099;BME280;62818;49.394;8.686;2023-07-24T02:27:36;99428.41;;;21.14;77.11
60099;BME280;62818;49.394;8.686;2023-07-24T02:28:37;99430.59;;;21.37;76.17
60099;BME280;62818;49.394;8.686;2023-07-24T02:29:38;99428.72;;;21.37;76.04
60099;BME280;62818;49.394;8.686;2023-07-24T02:30:39;99427.38;;;21.30;76.29
60099;BME280;62818;49.394;8.686;2023-07-24T02:31:40;99426.25;;;21.16;77.48
60099;BME280;62818;49.394;8.686;2023-07-24T02:32:40;99417.66;;;21.29;77.13
60099;BME280;62818;49.394;8.686;2023-07-24T02:33:41;99424.66;;;21.25;76.80
60099;BME280;62818;49.394;8.686;2023-07-24T02:34:41;99429.50;;;21.33;76.42
60099;BME280;62818;49.394;8.686;2023-07-24T02:35:42;99431.66;;;21.16;77.20
60099;BME280;62818;49.394;8.686;2023-07-24T02:36:42;99426.81;;;21.23;76.98
60099;BME280;62818;49.394;8.686;2023-07-24T02:37:43;99426.72;;;20.93;77.99
60099;BME280;62818;49.394;8.686;2023-07-24T02:38:43;99425.34;;;20.85;78.96
60099;BME280;62818;49.394;8.686;2023-07-24T02:39:44;99429.41;;;20.88;78.76
60099;BME280;62818;49.394;8.686;2023-07-24T02:40:45;99429.88;;;20.69;79.79
60099;BME280;62818;49.394;8.686;2023-07-24T02:41:47;99429.09;;;20.84;78.59
60099;BME280;62818;49.394;8.686;2023-07-24T02:42:49;99432.72;;;21.20;77.70
60099;BME280;62818;49.394;8.686;2023-07-24T02:43:49;99428.44;;;21.49;76.24
60099;BME280;62818;49.394;8.686;2023-07-24T02:44:50;99437.63;;;21.53;75.58
60099;BME280;62818;49.394;8.686;2023-07-24T02:45:50;99436.28;;;21.56;75.28
60099;BME280;62818;49.394;8.686;2023-07-24T02:46:51;99437.34;;;21.34;76.81
60099;BME280;62818;49.394;8.686;2023-07-24T02:47:51;99440.31;;;21.28;76.13
60099;BME280;62818;49.394;8.686;2023-07-24T02:48:52;99435.31;;;20.85;78.92
60099;BME280;62818;49.394;8.686;2023-07-24T02:49:54;99426.63;;;20.62;79.75
60099;BME280;62818;49.394;8.686;2023-07-24T02:50:54;99422.06;;;20.73;79.55
60099;BME280;62818;49.394;8.686;2023-07-24T02:51:55;99423.44;;;20.81;79.00
60099;BME280;62818;49.394;8.686;2023-07-24T02:52:56;99423.03;;;21.24;77.54
60099;BME280;62818;49.394;8.686;2023-07-24T02:53:56;99416.59;;;21.40;76.21
60099;BME280;62818;49.394;8.686;2023-07-24T02:54:57;99417.13;;;21.32;75.71
60099;BME280;62818;49.394;8.686;2023-07-24T02:55:57;99411.16;;;21.10;76.42
60099;BME280;62818;49.394;8.686;2023-07-24T02:56:57;99417.84;;;20.97;76.75
60099;BME280;62818;49.394;8.686;2023-07-24T02:57:58;99413.34;;;21.33;75.91
60099;BME280;62818;49.394;8.686;2023-07-24T02:58:58;99419.72;;;20.92;77.67
60099;BME280;62818;49.394;8.686;2023-07-24T02:59:59;99413.53;;;20.86;78.18
60099;BME280;62818;49.394;8.686;2023-07-24T03:01:06;99413.88;;;21.15;77.37
60099;BME280;62818;49.394;8.686;2023-07-24T03:02:07;99417.53;;;20.84;77.84
60099;BME280;62818;49.394;8.686;2023-07-24T03:03:08;99418.13;;;21.01;77.55
60099;BME280;62818;49.394;8.686;2023-07-24T03:04:08;99412.47;;;21.02;77.30
60099;BME280;62818;49.394;8.686;2023-07-24T03:05:09;99415.41;;;20.86;77.85
60099;BME280;62818;49.394;8.686;2023-07-24T03:06:09;99417.22;;;20.70;78.25
60099;BME280;62818;49.394;8.686;2023-07-24T03:07:10;99415.59;;;20.69;78.85
60099;BME280;62818;49.394;8.686;2023-07-24T03:08:10;99423.25;;;20.97;78.28
60099;BME280;62818;49.394;8.686;2023-07-24T03:09:11;99410.91;;;21.16;76.98
60099;BME280;62818;49.394;8.686;2023-07-24T03:10:11;99411.41;;;21.08;77.05
60099;BME280;62818;49.394;8.686;2023-07-24T03:11:12;99413.19;;;20.78;76.99
60099;BME280;62818;49.394;8.686;2023-07-24T03:12:12;99402.97;;;20.75;77.60
60099;BME280;62818;49.394;8.686;2023-07-24T03:13:13;99405.06;;;20.62;78.65
60099;BME280;62818;49.394;8.686;2023-07-24T03:14:13;99406.25;;;20.97;77.13
60099;BME280;62818;49.394;8.686;2023-07-24T03:15:14;99400.53;;;20.73;77.87
60099;BME280;62818;49.394;8.686;2023-07-24T03:16:14;99402.00;;;21.11;76.51
60099;BME280;62818;49.394;8.686;2023-07-24T03:17:15;99401.34;;;20.68;77.77
60099;BME280;62818;49.394;8.686;2023-07-24T03:18:15;99393.28;;;20.68;78.15
60099;BME280;62818;49.394;8.686;2023-07-24T03:19:15;99389.59;;;21.05;76.29
60099;BME280;62818;49.394;8.686;2023-07-24T03:20:19;99385.28;;;21.14;75.52
60099;BME280;62818;49.394;8.686;2023-07-24T03:21:21;99385.31;;;21.04;75.42
60099;BME280;62818;49.394;8.686;2023-07-24T03:22:21;99389.31;;;21.06;75.80
60099;BME280;62818;49.394;8.686;2023-07-24T03:23:22;99393.38;;;21.29;74.70
60099;BME280;62818;49.394;8.686;2023-07-24T03:24:22;99394.91;;;20.75;76.95
60099;BME280;62818;49.394;8.686;2023-07-24T03:25:23;99391.84;;;20.56;77.13
60099;BME280;62818;49.394;8.686;2023-07-24T03:26:23;99392.13;;;20.54;76.79
60099;BME280;62818;49.394;8.686;2023-07-24T03:27:24;99393.78;;;20.65;76.41
60099;BME280;62818;49.394;8.686;2023-07-24T03:28:24;99392.13;;;20.54;76.85
60099;BME280;62818;49.394;8.686;2023-07-24T03:29:26;99386.31;;;21.03;76.01
60099;BME280;62818;49.394;8.686;2023-07-24T03:30:26;99390.69;;;21.04;75.83
60099;BME280;62818;49.394;8.686;2023-07-24T03:31:27;99388.53;;;21.21;75.06
60099;BME280;62818;49.394;8.686;2023-07-24T03:32:27;99387.88;;;20.68;77.10
60099;BME280;62818;49.394;8.686;2023-07-24T03:33:28;99386.22;;;20.62;77.12
60099;BME280;62818;49.394;8.686;2023-07-24T03:34:28;99384.69;;;20.92;76.41
60099;BME280;62818;49.394;8.686;2023-07-24T03:35:29;99387.13;;;20.88;75.89
60099;BME280;62818;49.394;8.686;2023-07-24T03:36:29;99376.59;;;20.82;76.14
60099;BME280;62818;49.394;8.686;2023-07-24T03:37:30;99383.06;;;20.96;75.45
60099;BME280;62818;49.394;8.686;2023-07-24T03:38:31;99388.44;;;20.91;74.77
60099;BME280;62818;49.394;8.686;2023-07-24T03:39:31;99381.69;;;20.68;76.17
60099;BME280;62818;49.394;8.686;2023-07-24T03:40:32;99382.25;;;20.85;75.43
60099;BME280;62818;49.394;8.686;2023-07-24T03:41:32;99393.28;;;20.79;75.25
60099;BME280;62818;49.394;8.686;2023-07-24T03:42:33;99379.78;;;20.63;76.69
60099;BME280;62818;49.394;8.686;2023-07-24T03:43:33;99384.16;;;20.95;75.84
60099;BME280;62818;49.394;8.686;2023-07-24T03:44:34;99372.38;;;21.21;74.08
60099;BME280;62818;49.394;8.686;2023-07-24T03:45:34;99376.97;;;21.25;73.65
60099;BME280;62818;49.394;8.686;2023-07-24T03:46:35;99377.22;;;21.04;74.48
60099;BME280;62818;49.394;8.686;2023-07-24T03:47:35;99375.59;;;21.18;74.57
60099;BME280;62818;49.394;8.686;2023-07-24T03:48:36;99373.19;;;21.36;73.42
60099;BME280;62818;49.394;8.686;2023-07-24T03:49:36;99372.91;;;21.38;73.24
60099;BME280;62818;49.394;8.686;2023-07-24T03:50:37;99381.53;;;21.35;73.37
60099;BME280;62818;49.394;8.686;2023-07-24T03:51:37;99380.38;;;20.91;75.88
60099;BME280;62818;49.394;8.686;2023-07-24T03:52:38;99379.13;;;21.23;74.63
60099;BME280;62818;49.394;8.686;2023-07-24T03:53:38;99382.34;;;21.40;73.86
60099;BME280;62818;49.394;8.686;2023-07-24T03:54:39;99375.59;;;21.18;74.26
60099;BME280;62818;49.394;8.686;2023-07-24T03:55:39;99376.66;;;21.37;73.68
60099;BME280;62818;49.394;8.686;2023-07-24T03:56:40;99371.47;;;20.95;74.86
60099;BME280;62818;49.394;8.686;2023-07-24T03:57:40;99373.91;;;20.82;76.16
60099;BME280;62818;49.394;8.686;2023-07-24T03:58:41;99376.59;;;20.82;76.81
60099;BME280;62818;49.394;8.686;2023-07-24T03:59:41;99364.81;;;21.18;75.56
60099;BME280;62818;49.394;8.686;2023-07-24T04:00:42;99360.50;;;21.42;74.25
60099;BME280;62818;49.394;8.686;2023-07-24T04:01:42;99366.09;;;20.95;76.07
60099;BME280;62818;49.394;8.686;2023-07-24T04:02:43;99365.28;;;20.85;77.36
60099;BME280;62818;49.394;8.686;2023-07-24T04:03:43;99366.34;;;20.89;76.83
60099;BME280;62818;49.394;8.686;2023-07-24T04:04:44;99364.50;;;20.94;77.12
60099;BME280;62818;49.394;8.686;2023-07-24T04:05:44;99367.78;;;21.21;75.68
60099;BME280;62818;49.394;8.686;2023-07-24T04:06:45;99376.94;;;21.35;74.77
60099;BME280;62818;49.394;8.686;2023-07-24T04:07:46;99373.91;;;20.87;77.40
60099;BME280;62818;49.394;8.686;2023-07-24T04:08:46;99378.28;;;21.18;76.08
60099;BME280;62818;49.394;8.686;2023-07-24T04:09:47;99384.47;;;21.43;74.57
60099;BME280;62818;49.394;8.686;2023-07-24T04:10:47;99372.09;;;21.22;75.03
60099;BME280;62818;49.394;8.686;2023-07-24T04:11:48;99383.06;;;20.81;76.49
60099;BME280;62818;49.394;8.686;2023-07-24T04:12:48;99382.25;;;20.75;77.92
60099;BME280;62818;49.394;8.686;2023-07-24T04:13:49;99387.91;;;20.84;77.03
60099;BME280;62818;49.394;8.686;2023-07-24T04:14:49;99387.59;;;20.65;77.87
60099;BME280;62818;49.394;8.686;2023-07-24T04:15:50;99376.66;;;21.12;76.62
60099;BME280;62818;49.394;8.686;2023-07-24T04:16:51;99382.09;;;21.32;73.40
60099;BME280;62818;49.394;8.686;2023-07-24T04:17:51;99374.53;;;21.04;75.55
60099;BME280;62818;49.394;8.686;2023-07-24T04:18:52;99369.38;;;21.17;75.96
60099;BME280;62818;49.394;8.686;2023-07-24T04:19:52;99370.75;;;21.35;74.74
60099;BME280;62818;49.394;8.686;2023-07-24T04:20:53;99361.56;;;21.56;73.91
60099;BME280;62818;49.394;8.686;2023-07-24T04:21:56;99366.41;;;21.09;75.35
60099;BME280;62818;49.394;8.686;2023-07-24T04:22:56;99366.41;;;21.09;76.11
60099;BME280;62818;49.394;8.686;2023-07-24T04:23:57;99361.50;;;20.81;76.95
60099;BME280;62818;49.394;8.686;2023-07-24T04:24:57;99366.31;;;20.74;77.12
60099;BME280;62818;49.394;8.686;2023-07-24T04:25:58;99366.84;;;20.65;77.57
60099;BME280;62818;49.394;8.686;2023-07-24T04:26:58;99366.97;;;21.06;76.94
60099;BME280;62818;49.394;8.686;2023-07-24T04:27:58;99371.28;;;21.12;75.21
60099;BME280;62818;49.394;8.686;2023-07-24T04:28:59;99352.59;;;20.80;76.31
60099;BME280;62818;49.394;8.686;2023-07-24T04:29:59;99353.94;;;20.73;77.02
60099;BME280;62818;49.394;8.686;2023-07-24T04:31:00;99356.69;;;20.93;77.38
60099;BME280;62818;49.394;8.686;2023-07-24T04:32:01;99366.16;;;21.35;75.49
60099;BME280;62818;49.394;8.686;2023-07-24T04:33:02;99364.81;;;21.33;74.99
60099;BME280;62818;49.394;8.686;2023-07-24T04:34:02;99365.25;;;20.75;77.68
60099;BME280;62818;49.394;8.686;2023-07-24T04:35:03;99362.25;;;20.56;79.11
60099;BME280;62818;49.394;8.686;2023-07-24T04:36:04;99368.50;;;20.77;77.64
60099;BME280;62818;49.394;8.686;2023-07-24T04:37:04;99364.19;;;20.91;78.13
60099;BME280;62818;49.394;8.686;2023-07-24T04:38:05;99357.75;;;21.02;77.18
60099;BME280;62818;49.394;8.686;2023-07-24T04:39:05;99356.69;;;21.03;77.40
60099;BME280;62818;49.394;8.686;2023-07-24T04:40:06;99356.72;;;21.18;76.29
60099;BME280;62818;49.394;8.686;2023-07-24T04:41:07;99355.66;;;21.29;75.59
60099;BME280;62818;49.394;8.686;2023-07-24T04:42:08;99345.88;;;20.78;76.74
60099;BME280;62818;49.394;8.686;2023-07-24T04:43:08;99353.91;;;20.62;77.45
60099;BME280;62818;49.394;8.686;2023-07-24T04:44:08;99351.00;;;20.89;77.63
60099;BME280;62818;49.394;8.686;2023-07-24T04:45:09;99346.97;;;20.87;77.42
60099;BME280;62818;49.394;8.686;2023-07-24T04:46:10;99336.69;;;20.74;77.42
60099;BME280;62818;49.394;8.686;2023-07-24T04:47:10;99338.88;;;20.82;76.68
60099;BME280;62818;49.394;8.686;2023-07-24T04:48:11;99337.53;;;20.79;76.52
60099;BME280;62818;49.394;8.686;2023-07-24T04:49:11;99333.22;;;20.68;77.10
60099;BME280;62818;49.394;8.686;2023-07-24T04:50:12;99342.69;;;21.11;76.36
60099;BME280;62818;49.394;8.686;2023-07-24T04:51:12;99334.91;;;21.29;75.18
60099;BME280;62818;49.394;8.686;2023-07-24T04:52:13;99333.28;;;21.38;74.23
60099;BME280;62818;49.394;8.686;2023-07-24T04:53:13;99328.66;;;20.84;75.58
60099;BME280;62818;49.394;8.686;2023-07-24T04:54:14;99324.34;;;21.03;76.20
60099;BME280;62818;49.394;8.686;2023-07-24T04:55:14;99327.63;;;21.30;74.35
60099;BME280;62818;49.394;8.686;2023-07-24T04:56:15;99326.03;;;21.04;74.71
60099;BME280;62818;49.394;8.686;2023-07-24T04:57:15;99336.69;;;20.74;75.84
60099;BME280;62818;49.394;8.686;2023-07-24T04:58:16;99335.97;;;21.13;75.27
60099;BME280;62818;49.394;8.686;2023-07-24T04:59:16;99341.91;;;21.40;73.64
60099;BME280;62818;49.394;8.686;2023-07-24T05:00:17;99335.16;;;21.18;73.98
60099;BME280;62818;49.394;8.686;2023-07-24T05:01:17;99337.28;;;21.01;74.88
60099;BME280;62818;49.394;8.686;2023-07-24T05:02:18;99340.53;;;21.03;75.90
60099;BME280;62818;49.394;8.686;2023-07-24T05:03:18;99348.13;;;21.06;75.78
60099;BME280;62818;49.394;8.686;2023-07-24T05:04:19;99343.25;;;21.43;74.56
60099;BME280;62818;49.394;8.686;2023-07-24T05:05:20;99346.50;;;21.15;75.07
60099;BME280;62818;49.394;8.686;2023-07-24T05:06:20;99337.81;;;20.98;76.31
60099;BME280;62818;49.394;8.686;2023-07-24T05:07:21;99339.16;;;20.95;75.72
60099;BME280;62818;49.394;8.686;2023-07-24T05:08:22;99345.66;;;21.04;75.23
60099;BME280;62818;49.394;8.686;2023-07-24T05:09:23;99337.03;;;21.17;75.63
60099;BME280;62818;49.394;8.686;2023-07-24T05:10:23;99344.34;;;21.52;73.23
60099;BME280;62818;49.394;8.686;2023-07-24T05:11:23;99338.41;;;21.30;74.93
60099;BME280;62818;49.394;8.686;2023-07-24T05:12:24;99336.25;;;21.52;74.62
60099;BME280;62818;49.394;8.686;2023-07-24T05:13:27;99343.22;;;21.58;74.06
60099;BME280;62818;49.394;8.686;2023-07-24T05:14:28;99348.66;;;21.28;74.76
60099;BME280;62818;49.394;8.686;2023-07-24T05:15:28;99348.13;;;21.21;76.44
60099;BME280;62818;49.394;8.686;2023-07-24T05:16:29;99349.19;;;21.20;76.71
60099;BME280;62818;49.394;8.686;2023-07-24T05:17:29;99344.31;;;21.57;75.28
60099;BME280;62818;49.394;8.686;2023-07-24T05:18:30;99347.00;;;21.37;75.38
60099;BME280;62818;49.394;8.686;2023-07-24T05:19:30;99346.47;;;21.35;76.13
60099;BME280;62818;49.394;8.686;2023-07-24T05:20:31;99338.41;;;21.45;74.95
60099;BME280;62818;49.394;8.686;2023-07-24T05:21:31;99333.50;;;21.62;74.63
60099;BME280;62818;49.394;8.686;2023-07-24T05:22:32;99328.63;;;21.79;73.91
60099;BME280;62818;49.394;8.686;2023-07-24T05:23:33;99337.28;;;21.76;73.95
60099;BME280;62818;49.394;8.686;2023-07-24T05:24:33;99328.69;;;21.49;74.67
60099;BME280;62818;49.394;8.686;2023-07-24T05:25:34;99335.44;;;21.31;75.69
60099;BME280;62818;49.394;8.686;2023-07-24T05:26:35;99339.97;;;21.66;74.57